createdAt,value
2018-01-20T00:02:22.690Z,1.33
2018-01-20T00:04:54.329Z,1.11
2018-01-20T00:07:25.739Z,1.16
2018-01-20T00:10:20.652Z,1.22
2018-01-20T00:12:52.135Z,1.18
2018-01-20T00:15:23.988Z,1.19
2018-01-20T00:18:00.332Z,1.38
2018-01-20T00:20:31.450Z,1.36
2018-01-20T00:23:02.935Z,1.36
2018-01-20T00:25:34.472Z,1.41
2018-01-20T00:28:07.283Z,1.36
2018-01-20T00:30:38.954Z,1.36
2018-01-20T00:33:10.862Z,1.47
2018-01-20T00:35:42.056Z,1.37
2018-01-20T00:38:13.305Z,1.38
2018-01-20T00:40:45.147Z,1.45
2018-01-20T00:43:16.442Z,1.53
2018-01-20T00:45:47.787Z,1.40
2018-01-20T00:48:19.277Z,1.54
2018-01-20T00:50:50.478Z,1.32
2018-01-20T00:53:22.040Z,1.43
2018-01-20T00:55:53.430Z,1.37
2018-01-20T00:58:25.856Z,1.44
2018-01-20T01:00:56.817Z,1.44
2018-01-20T01:03:28.214Z,1.47
2018-01-20T01:05:59.300Z,1.56
2018-01-20T01:08:30.502Z,1.57
2018-01-20T01:11:01.341Z,1.60
2018-01-20T01:13:32.329Z,1.37
2018-01-20T01:16:03.726Z,1.52
2018-01-20T01:18:34.665Z,1.50
2018-01-20T01:21:05.526Z,1.27
2018-01-20T01:23:36.441Z,1.31
2018-01-20T01:26:07.360Z,1.37
2018-01-20T01:28:38.476Z,1.36
2018-01-20T01:31:09.320Z,1.36
2018-01-20T01:33:40.298Z,1.55
2018-01-20T01:36:11.533Z,1.50
2018-01-20T01:38:42.750Z,1.67
2018-01-20T01:41:13.703Z,1.52
2018-01-20T01:43:44.725Z,1.65
2018-01-20T01:46:15.709Z,1.66
2018-01-20T01:48:46.791Z,1.76
2018-01-20T01:51:18.085Z,1.64
2018-01-20T01:53:49.148Z,1.76
2018-01-20T01:56:20.193Z,1.77
2018-01-20T01:58:51.321Z,1.86
2018-01-20T02:01:23.388Z,1.84
2018-01-20T02:03:55.117Z,1.87
2018-01-20T02:06:26.636Z,1.86
2018-01-20T02:08:57.759Z,1.91
2018-01-20T02:11:28.585Z,2.07
2018-01-20T02:13:59.641Z,1.75
2018-01-20T02:16:30.947Z,1.80
2018-01-20T02:19:01.971Z,1.77
2018-01-20T02:21:33.882Z,1.84
2018-01-20T02:24:05.134Z,1.73
2018-01-20T02:26:36.340Z,1.71
2018-01-20T02:29:07.327Z,1.63
2018-01-20T02:31:38.325Z,1.70
2018-01-20T02:34:09.489Z,1.65
2018-01-20T02:36:40.815Z,1.91
2018-01-20T02:39:11.787Z,1.73
2018-01-20T02:41:42.663Z,1.79
2018-01-20T02:44:13.679Z,1.83
2018-01-20T02:46:45.050Z,1.87
2018-01-20T02:49:16.430Z,1.89
2018-01-20T02:51:47.631Z,1.93
2018-01-20T02:54:18.723Z,1.77
2018-01-20T02:56:51.475Z,1.79
2018-01-20T02:59:23.735Z,1.95
2018-01-20T03:01:54.951Z,1.78
2018-01-20T03:04:25.923Z,1.70
2018-01-20T03:06:56.860Z,1.65
2018-01-20T03:09:28.415Z,1.57
2018-01-20T03:11:59.387Z,1.62
2018-01-20T03:14:30.347Z,1.59
2018-01-20T03:17:01.668Z,1.56
2018-01-20T03:19:32.728Z,1.54
2018-01-20T03:22:04.599Z,1.49
2018-01-20T03:24:35.627Z,1.46
2018-01-20T03:27:07.466Z,1.49
2018-01-20T03:29:38.875Z,1.55
2018-01-20T03:32:09.976Z,1.42
2018-01-20T03:34:40.870Z,1.38
2018-01-20T03:37:11.771Z,1.37
2018-01-20T03:39:42.731Z,1.34
2018-01-20T04:08:59.954Z,1.46
2018-01-20T04:11:29.613Z,1.46
2018-01-20T04:13:58.926Z,1.47
2018-01-20T04:16:28.715Z,1.56
2018-01-20T04:18:58.007Z,1.55
2018-01-20T04:21:27.371Z,1.56
2018-01-20T04:23:57.047Z,1.70
2018-01-20T04:26:26.450Z,1.56
2018-01-20T04:28:55.829Z,1.63
2018-01-20T04:31:25.130Z,1.61
2018-01-20T04:33:54.437Z,1.65
2018-01-20T04:36:23.778Z,1.69
2018-01-20T04:38:53.130Z,1.66
2018-01-20T04:41:22.414Z,1.62
2018-01-20T04:43:51.826Z,1.56
2018-01-20T04:46:21.448Z,1.52
2018-01-20T04:48:50.763Z,1.60
2018-01-20T04:51:20.037Z,1.75
2018-01-20T04:53:49.410Z,1.65
2018-01-20T04:56:18.763Z,1.68
2018-01-20T04:58:48.687Z,1.79
2018-01-20T05:01:18.410Z,1.58
2018-01-20T05:03:47.727Z,1.56
2018-01-20T05:06:17.006Z,1.48
2018-01-20T05:08:46.762Z,1.54
2018-01-20T05:11:16.062Z,1.64
2018-01-20T05:13:45.563Z,1.62
2018-01-20T05:16:15.339Z,1.52
2018-01-20T05:18:44.713Z,1.40
2018-01-20T05:21:14.010Z,1.50
2018-01-20T05:23:43.477Z,1.38
2018-01-20T05:26:12.784Z,1.40
2018-01-20T05:28:42.628Z,1.31
2018-01-20T05:31:12.274Z,1.37
2018-01-20T05:33:41.688Z,1.40
2018-01-20T05:36:10.970Z,1.49
2018-01-20T05:38:40.362Z,1.46
2018-01-20T05:41:09.670Z,1.35
2018-01-20T05:43:39.007Z,1.32
2018-01-20T05:46:08.770Z,1.39
2018-01-20T05:48:38.251Z,1.36
2018-01-20T05:51:07.820Z,1.38
2018-01-20T05:53:37.287Z,1.36
2018-01-20T05:56:06.730Z,1.23
2018-01-20T05:58:36.296Z,1.26
2018-01-20T06:01:10.382Z,1.36
2018-01-20T06:03:39.731Z,1.32
2018-01-20T06:08:42.809Z,1.33
2018-01-20T06:11:13.016Z,1.32
2018-01-20T06:13:42.570Z,1.38
2018-01-20T06:16:11.875Z,1.40
2018-01-20T06:18:41.902Z,1.34
2018-01-20T06:21:11.281Z,1.58
2018-01-20T06:23:40.694Z,1.35
2018-01-20T06:26:10.313Z,1.35
2018-01-20T06:28:39.877Z,1.49
2018-01-20T06:31:09.298Z,1.37
2018-01-20T06:33:38.693Z,1.60
2018-01-20T06:36:08.507Z,1.38
2018-01-20T06:38:38.492Z,1.35
2018-01-20T06:41:08.162Z,1.36
2018-01-20T06:43:38.403Z,1.29
2018-01-20T06:46:08.038Z,1.38
2018-01-20T06:48:37.431Z,1.22
2018-01-20T06:51:07.258Z,1.32
2018-01-20T06:53:36.595Z,1.30
2018-01-20T06:56:05.943Z,1.34
2018-01-20T06:58:35.753Z,1.43
2018-01-20T07:01:05.073Z,1.30
2018-01-20T07:03:34.605Z,1.41
2018-01-20T07:06:04.340Z,1.48
2018-01-20T07:08:33.769Z,1.36
2018-01-20T07:11:03.091Z,1.37
2018-01-20T07:13:33.067Z,1.42
2018-01-20T07:16:02.503Z,1.30
2018-01-20T07:18:32.024Z,1.37
2018-01-20T07:21:01.620Z,1.34
2018-01-20T07:23:31.234Z,1.30
2018-01-20T07:26:03.044Z,1.33
2018-01-20T07:28:33.576Z,1.48
2018-01-20T07:31:03.485Z,1.53
2018-01-20T07:33:33.101Z,1.44
2018-01-20T07:36:03.622Z,1.53
2018-01-20T07:38:33.318Z,1.38
2018-01-20T07:41:02.955Z,1.29
2018-01-20T07:43:32.696Z,1.34
2018-01-20T07:46:02.987Z,1.29
2018-01-20T07:48:34.082Z,1.51
2018-01-20T07:51:04.510Z,1.79
2018-01-20T07:53:35.166Z,1.53
2018-01-20T07:56:06.784Z,1.58
2018-01-20T07:58:36.753Z,1.62
2018-01-20T08:01:06.996Z,1.64
2018-01-20T08:03:36.431Z,1.44
2018-01-20T08:06:06.353Z,1.57
2018-01-20T08:08:35.728Z,1.72
2018-01-20T08:11:05.055Z,1.72
2018-01-20T08:13:35.086Z,1.74
2018-01-20T08:16:04.980Z,1.77
2018-01-20T08:18:34.419Z,1.68
2018-01-20T08:21:04.420Z,1.67
2018-01-20T08:23:34.052Z,1.89
2018-01-20T08:26:03.838Z,1.78
2018-01-20T08:28:33.539Z,1.81
2018-01-20T08:31:03.172Z,1.91
2018-01-20T08:33:32.628Z,2.01
2018-01-20T08:36:02.555Z,2.01
2018-01-20T08:38:32.254Z,1.97
2018-01-20T08:41:01.643Z,2.17
2018-01-20T08:43:31.320Z,2.10
2018-01-20T08:46:01.188Z,2.20
2018-01-20T08:48:30.935Z,2.39
2018-01-20T08:51:00.614Z,2.31
2018-01-20T08:53:30.042Z,2.35
2018-01-20T08:55:59.395Z,2.40
2018-01-20T08:58:29.258Z,2.47
2018-01-20T09:00:58.695Z,2.85
2018-01-20T09:03:28.016Z,2.78
2018-01-20T09:05:57.634Z,2.57
2018-01-20T09:08:26.947Z,2.78
2018-01-20T09:10:56.307Z,2.75
2018-01-20T09:13:26.002Z,2.75
2018-01-20T09:15:55.483Z,2.83
2018-01-20T09:18:24.884Z,2.81
2018-01-20T09:20:54.808Z,2.82
2018-01-20T09:23:24.947Z,2.92
2018-01-20T09:25:54.642Z,2.92
2018-01-20T09:28:24.277Z,3.02
2018-01-20T09:30:54.211Z,3.17
2018-01-20T09:33:23.633Z,3.26
2018-01-20T09:35:53.354Z,3.54
2018-01-20T09:38:22.702Z,3.49
2018-01-20T09:40:52.076Z,3.61
2018-01-20T09:43:21.686Z,3.53
2018-01-20T09:45:51.036Z,3.73
2018-01-20T09:48:20.337Z,3.58
2018-01-20T09:50:49.950Z,3.72
2018-01-20T09:53:19.290Z,3.90
2018-01-20T09:55:48.590Z,4.37
2018-01-20T09:58:18.206Z,3.97
2018-01-20T10:00:47.531Z,3.94
2018-01-20T10:03:16.839Z,3.82
2018-01-20T10:05:46.422Z,3.84
2018-01-20T10:08:15.734Z,3.79
2018-01-20T10:10:45.071Z,3.91
2018-01-20T10:13:15.323Z,4.06
2018-01-20T10:15:44.778Z,3.68
2018-01-20T10:18:14.082Z,3.86
2018-01-20T10:20:43.581Z,4.06
2018-01-20T10:23:13.038Z,3.98
2018-01-20T10:25:42.448Z,3.84
2018-01-20T10:28:12.469Z,4.06
2018-01-20T10:30:42.207Z,4.13
2018-01-20T10:33:12.034Z,4.09
2018-01-20T10:35:42.504Z,3.91
2018-01-20T10:38:11.993Z,4.07
2018-01-20T10:40:41.770Z,3.98
2018-01-20T10:43:11.696Z,3.79
2018-01-20T10:45:41.378Z,3.92
2018-01-20T10:48:11.147Z,4.24
2018-01-20T10:50:41.307Z,3.89
2018-01-20T10:53:10.992Z,3.82
2018-01-20T10:55:40.488Z,3.87
2018-01-20T10:58:10.543Z,3.75
2018-01-20T11:00:40.498Z,3.89
2018-01-20T11:03:10.390Z,3.89
2018-01-20T11:05:41.565Z,3.71
2018-01-20T11:08:12.928Z,3.95
2018-01-20T11:10:43.495Z,3.91
2018-01-20T11:13:21.668Z,3.86
2018-01-20T11:15:51.738Z,4.14
2018-01-20T11:18:21.982Z,4.19
2018-01-20T11:20:51.931Z,4.22
2018-01-20T11:23:21.331Z,4.38
2018-01-20T11:25:51.095Z,4.33
2018-01-20T11:28:20.381Z,4.06
2018-01-20T11:30:49.851Z,4.25
2018-01-20T11:33:19.429Z,4.29
2018-01-20T11:35:48.930Z,4.09
2018-01-20T11:38:18.585Z,4.04
2018-01-20T11:40:48.291Z,4.05
2018-01-20T11:43:18.106Z,3.99
2018-01-20T11:45:47.510Z,4.16
2018-01-20T11:48:17.160Z,4.30
2018-01-20T11:50:46.621Z,4.49
2018-01-20T11:53:16.060Z,4.46
2018-01-20T11:55:46.126Z,4.30
2018-01-20T11:58:15.658Z,4.36
2018-01-20T12:00:45.350Z,4.34
2018-01-20T12:03:14.998Z,4.58
2018-01-20T12:05:44.490Z,4.45
2018-01-20T12:08:13.803Z,4.77
2018-01-20T12:10:48.294Z,4.75
2018-01-20T12:13:17.767Z,4.93
2018-01-20T12:15:47.651Z,4.78
2018-01-20T12:18:23.556Z,4.77
2018-01-20T12:20:53.158Z,4.61
2018-01-20T12:23:23.297Z,4.84
2018-01-20T12:25:52.970Z,4.69
2018-01-20T12:28:23.554Z,4.66
2018-01-20T12:30:53.528Z,4.16
2018-01-20T12:33:24.734Z,4.40
2018-01-20T12:35:54.595Z,4.33
2018-01-20T12:38:26.528Z,4.45
2018-01-20T12:40:56.159Z,4.42
2018-01-20T12:43:25.616Z,4.48
2018-01-20T12:45:55.506Z,4.29
2018-01-20T12:48:24.890Z,4.43
2018-01-20T12:50:54.474Z,4.55
2018-01-20T12:53:24.290Z,4.42
2018-01-20T12:55:53.795Z,4.53
2018-01-20T12:58:23.106Z,4.38
2018-01-20T13:00:53.170Z,4.38
2018-01-20T13:03:22.552Z,4.40
2018-01-20T13:05:52.132Z,4.25
2018-01-20T13:08:21.819Z,4.43
2018-01-20T13:10:52.086Z,4.40
2018-01-20T13:13:21.860Z,4.26
2018-01-20T13:15:51.836Z,4.51
2018-01-20T13:18:21.352Z,4.18
2018-01-20T13:20:50.827Z,4.20
2018-01-20T13:23:20.598Z,4.28
2018-01-20T13:25:50.006Z,4.26
2018-01-20T13:28:19.349Z,4.21
2018-01-20T13:30:49.242Z,4.21
2018-01-20T13:33:18.598Z,4.43
2018-01-20T13:35:48.040Z,4.38
2018-01-20T13:38:17.755Z,4.31
2018-01-20T13:40:47.250Z,4.39
2018-01-20T13:43:16.788Z,4.32
2018-01-20T13:45:46.461Z,4.11
2018-01-20T13:48:16.130Z,4.32
2018-01-20T13:50:45.875Z,4.40
2018-01-20T13:53:15.660Z,4.35
2018-01-20T13:55:45.151Z,4.29
2018-01-20T13:58:14.570Z,4.38
2018-01-20T14:00:44.247Z,4.35
2018-01-20T14:03:13.668Z,4.62
2018-01-20T14:05:43.206Z,4.59
2018-01-20T14:08:12.882Z,4.40
2018-01-20T14:10:42.287Z,4.58
2018-01-20T14:13:11.821Z,4.39
2018-01-20T14:15:42.526Z,4.54
2018-01-20T14:18:11.931Z,4.46
2018-01-20T14:20:41.621Z,4.66
2018-01-20T14:23:11.475Z,4.68
2018-01-20T14:25:40.778Z,4.77
2018-01-20T14:28:10.148Z,4.65
2018-01-20T14:30:40.202Z,4.63
2018-01-20T14:33:11.038Z,4.52
2018-01-20T14:35:40.970Z,4.58
2018-01-20T14:38:10.419Z,4.66
2018-01-20T14:40:40.075Z,4.31
2018-01-20T14:45:37.903Z,4.49
2018-01-20T14:48:07.294Z,4.43
2018-01-20T14:50:36.975Z,4.48
2018-01-20T14:53:06.590Z,4.11
2018-01-20T14:55:35.923Z,4.28
2018-01-20T14:58:05.863Z,4.31
2018-01-20T15:00:35.216Z,4.42
2018-01-20T15:03:04.790Z,4.12
2018-01-20T15:05:34.182Z,4.31
2018-01-20T15:08:03.770Z,4.07
2018-01-20T15:10:33.363Z,3.95
2018-01-20T15:13:03.532Z,4.02
2018-01-20T15:15:32.890Z,4.09
2018-01-20T15:18:02.398Z,4.14
2018-01-20T15:20:32.053Z,3.93
2018-01-20T15:23:01.440Z,3.84
2018-01-20T15:25:30.851Z,3.82
2018-01-20T15:28:00.531Z,3.89
2018-01-20T15:30:29.875Z,3.76
2018-01-20T15:32:59.338Z,3.81
2018-01-20T15:35:28.963Z,3.84
2018-01-20T15:37:58.431Z,3.75
2018-01-20T15:40:27.891Z,3.82
2018-01-20T15:42:57.559Z,3.79
2018-01-20T15:45:26.935Z,3.72
2018-01-20T15:47:56.891Z,3.78
2018-01-20T15:50:26.612Z,3.45
2018-01-20T15:52:56.096Z,3.61
2018-01-20T15:55:25.470Z,3.50
2018-01-20T15:57:55.454Z,3.50
2018-01-20T16:00:25.066Z,3.58
2018-01-20T16:02:54.617Z,3.48
2018-01-20T16:05:24.439Z,3.79
2018-01-20T16:07:53.838Z,3.72
2018-01-20T16:10:23.541Z,3.82
2018-01-20T16:12:53.214Z,3.59
2018-01-20T16:15:22.751Z,3.73
2018-01-20T16:17:52.191Z,3.67
2018-01-20T16:20:21.895Z,3.73
2018-01-20T16:22:51.333Z,3.95
2018-01-20T16:25:20.990Z,3.87
2018-01-20T16:27:50.946Z,3.80
2018-01-20T16:30:24.516Z,3.66
2018-01-20T16:32:54.874Z,3.61
2018-01-20T16:35:25.047Z,3.43
2018-01-20T16:37:54.621Z,3.45
2018-01-20T16:40:24.441Z,3.55
2018-01-20T16:42:53.821Z,3.62
2018-01-20T16:45:23.498Z,3.38
2018-01-20T16:47:53.150Z,3.35
2018-01-20T16:50:22.790Z,3.21
2018-01-20T16:52:52.323Z,3.27
2018-01-20T16:55:22.062Z,3.24
2018-01-20T16:57:51.405Z,3.39
2018-01-20T17:00:20.955Z,3.44
2018-01-20T17:02:50.423Z,3.49
2018-01-20T17:05:19.910Z,3.33
2018-01-20T17:07:49.266Z,3.35
2018-01-20T17:10:18.990Z,3.41
2018-01-20T17:12:48.266Z,3.38
2018-01-20T17:15:17.812Z,3.47
2018-01-20T17:17:47.470Z,3.76
2018-01-20T17:20:16.900Z,3.56
2018-01-20T17:22:46.214Z,3.63
2018-01-20T17:25:17.119Z,3.03
2018-01-20T17:27:46.550Z,3.05
2018-01-20T17:30:16.130Z,3.00
2018-01-20T17:32:45.835Z,3.11
2018-01-20T17:35:15.322Z,3.31
2018-01-20T17:37:44.828Z,3.23
2018-01-20T17:40:14.867Z,3.18
2018-01-20T17:42:44.260Z,3.65
2018-01-20T17:45:13.678Z,3.41
2018-01-20T17:47:43.342Z,3.35
2018-01-20T17:50:12.968Z,3.35
2018-01-20T17:52:42.780Z,3.35
2018-01-20T17:55:13.104Z,3.28
2018-01-20T17:57:42.702Z,3.36
2018-01-20T18:00:12.294Z,3.55
2018-01-20T18:02:42.039Z,3.39
2018-01-20T18:05:12.450Z,3.31
2018-01-20T18:07:42.011Z,3.38
2018-01-20T18:10:11.676Z,3.43
2018-01-20T18:12:41.082Z,3.28
2018-01-20T18:15:10.510Z,3.37
2018-01-20T18:17:40.372Z,3.11
2018-01-20T18:20:10.030Z,3.22
2018-01-20T18:22:39.715Z,3.47
2018-01-20T18:25:10.811Z,3.31
2018-01-20T18:27:40.206Z,3.25
2018-01-20T18:30:09.731Z,3.54
2018-01-20T18:32:39.435Z,3.27
2018-01-20T18:35:09.538Z,3.40
2018-01-20T18:37:39.084Z,3.63
2018-01-20T18:40:09.881Z,3.43
2018-01-20T18:42:39.578Z,3.36
2018-01-20T18:45:09.199Z,3.27
2018-01-20T18:47:38.900Z,3.55
2018-01-20T18:50:08.998Z,3.37
2018-01-20T18:52:38.443Z,3.37
2018-01-20T18:55:08.755Z,3.31
2018-01-20T18:57:38.585Z,3.42
2018-01-20T19:00:09.051Z,3.36
2018-01-20T19:02:39.269Z,3.38
2018-01-20T19:05:09.683Z,3.30
2018-01-20T19:07:39.567Z,3.28
2018-01-20T19:10:09.855Z,3.56
2018-01-20T19:12:39.646Z,3.29
2018-01-20T19:15:10.572Z,3.19
2018-01-20T19:17:41.008Z,3.49
2018-01-20T19:20:11.250Z,3.34
2018-01-20T19:22:40.714Z,3.23
2018-01-20T19:25:10.636Z,3.12
2018-01-20T19:27:40.276Z,3.04
2018-01-20T19:30:10.796Z,3.05
2018-01-20T19:32:40.503Z,2.81
2018-01-20T19:35:10.094Z,2.65
2018-01-20T19:37:40.195Z,2.22
2018-01-20T19:40:10.328Z,2.09
2018-01-20T19:42:40.155Z,1.88
2018-01-20T19:45:10.607Z,2.32
2018-01-20T19:47:40.806Z,2.34
2018-01-20T19:50:10.231Z,2.61
2018-01-20T19:52:39.902Z,2.60
2018-01-20T19:55:09.635Z,2.64
2018-01-20T19:57:39.149Z,2.74
2018-01-20T20:00:08.923Z,3.01
2018-01-20T20:02:38.659Z,3.07
2018-01-20T20:05:08.006Z,3.05
2018-01-20T20:07:37.395Z,2.90
2018-01-20T20:10:07.422Z,2.95
2018-01-20T20:12:36.818Z,2.91
2018-01-20T20:15:06.390Z,2.79
2018-01-20T20:17:36.220Z,2.92
2018-01-20T20:20:05.979Z,2.92
2018-01-20T20:22:35.474Z,2.62
2018-01-20T20:25:07.218Z,2.83
2018-01-20T20:27:36.682Z,2.98
2018-01-20T20:30:07.550Z,2.82
2018-01-20T20:32:37.336Z,3.11
2018-01-20T20:35:06.770Z,3.04
2018-01-20T20:37:36.122Z,3.13
2018-01-20T20:40:06.908Z,2.77
2018-01-20T20:42:36.317Z,2.90
2018-01-20T20:45:05.683Z,2.79
2018-01-20T20:47:35.415Z,2.64
2018-01-20T20:50:05.035Z,2.81
2018-01-20T20:52:34.342Z,3.08
2018-01-20T20:55:03.800Z,2.84
2018-01-20T20:57:33.251Z,2.86
2018-01-20T21:00:03.304Z,2.62
2018-01-20T21:02:32.932Z,2.59
2018-01-20T21:05:02.507Z,2.63
2018-01-20T21:07:31.855Z,2.74
2018-01-20T21:10:01.951Z,2.69
2018-01-20T21:12:31.258Z,2.71
2018-01-20T21:15:01.187Z,2.95
2018-01-20T21:17:30.842Z,2.88
2018-01-20T21:20:00.226Z,2.99
2018-01-20T21:22:29.577Z,2.84
2018-01-20T21:24:59.534Z,2.79
2018-01-20T21:27:31.112Z,2.75
2018-01-20T21:30:00.855Z,3.12
2018-01-20T21:32:31.401Z,2.83
2018-01-20T21:35:00.983Z,2.89
2018-01-20T21:37:30.685Z,2.75
2018-01-20T21:40:02.577Z,2.71
2018-01-20T21:42:32.402Z,2.53
2018-01-20T21:45:01.994Z,2.23
2018-01-20T21:47:32.311Z,2.33
2018-01-20T21:50:02.110Z,2.02
2018-01-20T21:52:31.462Z,2.01
2018-01-20T21:55:00.986Z,1.83
2018-01-20T21:57:31.494Z,1.90
2018-01-20T22:00:01.247Z,2.04
2018-01-20T22:02:30.730Z,1.97
2018-01-20T22:05:00.622Z,2.32
2018-01-20T22:07:29.944Z,2.42
2018-01-20T22:10:01.832Z,2.28
2018-01-20T22:12:31.422Z,2.41
2018-01-20T22:15:01.067Z,2.62
2018-01-20T22:17:30.391Z,2.43
2018-01-20T22:20:00.594Z,2.42
2018-01-20T22:22:30.095Z,2.52
2018-01-20T22:24:59.515Z,2.74
2018-01-20T22:27:29.327Z,2.67
2018-01-20T22:29:58.754Z,2.82
2018-01-20T22:32:31.040Z,2.54
2018-01-20T22:35:02.183Z,2.21
2018-01-20T22:37:31.510Z,2.52
2018-01-20T22:40:04.536Z,2.38
2018-01-20T22:42:34.300Z,2.10
2018-01-20T22:45:04.324Z,2.18
2018-01-20T22:47:34.557Z,1.74
2018-01-20T22:50:06.060Z,1.39
2018-01-20T22:52:35.473Z,1.54
2018-01-20T22:55:05.330Z,1.55
2018-01-20T22:57:35.483Z,1.30
2018-01-20T23:00:05.698Z,1.76
2018-01-20T23:02:35.023Z,2.19
2018-01-20T23:05:04.802Z,2.34
2018-01-20T23:07:34.827Z,2.45
2018-01-20T23:11:13.223Z,2.44
2018-01-20T23:13:42.806Z,2.36
2018-01-20T23:16:12.264Z,2.23
2018-01-20T23:18:41.720Z,2.01
2018-01-20T23:21:11.091Z,2.13
2018-01-20T23:23:40.681Z,2.35
2018-01-20T23:26:10.976Z,2.32
2018-01-20T23:28:41.673Z,1.77
2018-01-20T23:31:10.982Z,1.78
2018-01-20T23:33:41.046Z,1.46
2018-01-20T23:36:10.770Z,1.38
2018-01-20T23:38:40.258Z,1.45
2018-01-20T23:41:09.614Z,1.96
2018-01-20T23:43:39.370Z,2.05
2018-01-20T23:46:08.688Z,1.84
2018-01-20T23:48:38.104Z,2.13
2018-01-20T23:51:07.703Z,2.02
2018-01-20T23:53:37.058Z,1.80
2018-01-20T23:56:06.522Z,1.61
2018-01-20T23:58:36.170Z,1.39
